Time;durP1;ratioP1;P1;durP2;ratioP2;P2;SDS_P1;SDS_P2;PMS_P1;PMS_P2;Temp;Humidity;BMP_temperature;BMP_pressure;BME280_temperature;BME280_humidity;BME280_pressure;Samples;Min_cycle;Max_cycle;Signal;HPM_P1;HPM_P2
2021/08/13 00:00:26;;;;;;;12.68;6.80;;;614.80;2099.20;;;;;;5032917;28;20586;-76
2021/08/13 00:02:52;;;;;;;14.77;7.78;;;614.80;2124.80;;;;;;5032522;28;20065;-76
2021/08/13 00:05:18;;;;;;;15.00;7.57;;;614.80;2124.80;;;;;;5034523;28;20518;-76
2021/08/13 00:07:43;;;;;;;14.90;6.93;;;614.80;2099.20;;;;;;5032893;28;20037;-78
2021/08/13 00:10:09;;;;;;;15.25;6.70;;;614.80;2124.80;;;;;;5032943;28;20078;-77
2021/08/13 00:12:35;;;;;;;14.35;7.15;;;614.80;2150.40;;;;;;5031796;28;20041;-77
2021/08/13 00:15:01;;;;;;;15.32;7.45;;;614.90;2150.40;;;;;;5034180;28;20024;-76
2021/08/13 00:17:27;;;;;;;11.27;6.40;;;614.90;2150.40;;;;;;5032540;28;20017;-76
2021/08/13 00:19:54;;;;;;;17.77;7.68;;;614.90;2176.00;;;;;;5032032;28;20036;-76
2021/08/13 00:22:20;;;;;;;15.70;8.15;;;614.90;2176.00;;;;;;5035426;28;20029;-76
2021/08/13 00:24:46;;;;;;;13.43;6.70;;;614.90;2176.00;;;;;;5048024;28;20032;-76
2021/08/13 00:27:12;;;;;;;12.32;7.40;;;614.90;2176.00;;;;;;5030749;28;20033;-76
2021/08/13 00:29:38;;;;;;;14.95;6.28;;;614.90;2176.00;;;;;;5032471;28;20033;-77
2021/08/13 00:32:04;;;;;;;13.52;7.25;;;614.90;2201.60;;;;;;5033045;28;20389;-77
2021/08/13 00:34:30;;;;;;;11.73;7.03;;;614.90;2201.60;;;;;;5032708;28;20043;-76
2021/08/13 00:36:56;;;;;;;15.32;8.23;;;614.90;2227.20;;;;;;5020710;28;20037;-76
2021/08/13 00:39:22;;;;;;;11.25;6.07;;;614.90;2227.20;;;;;;5042070;28;20025;-76
2021/08/13 00:41:47;;;;;;;14.23;7.47;;;614.80;2227.20;;;;;;5039143;28;20025;-76
2021/08/13 00:44:13;;;;;;;12.32;6.22;;;614.80;2252.80;;;;;;5036997;28;20034;-76
2021/08/13 00:46:39;;;;;;;12.43;7.68;;;614.80;2252.80;;;;;;5032660;28;20804;-76
2021/08/13 00:49:04;;;;;;;12.88;6.90;;;614.70;2252.80;;;;;;5037270;28;20045;-76
2021/08/13 00:51:30;;;;;;;14.60;6.65;;;614.70;2278.40;;;;;;5041540;28;20038;-76
2021/08/13 00:53:56;;;;;;;14.63;7.40;;;614.70;2304.00;;;;;;5040255;28;20025;-76
2021/08/13 00:56:23;;;;;;;11.77;6.93;;;614.60;2304.00;;;;;;5033726;28;20025;-76
2021/08/13 00:58:49;;;;;;;19.10;7.78;;;614.70;2304.00;;;;;;5033243;28;20018;-77
2021/08/13 01:01:14;;;;;;;11.43;7.05;;;614.60;2304.00;;;;;;5034672;28;20087;-76
2021/08/13 01:03:40;;;;;;;11.10;5.32;;;614.60;2304.00;;;;;;5033486;28;20033;-75
2021/08/13 01:06:08;;;;;;;15.23;6.13;;;614.60;2304.00;;;;;;5041346;28;20498;-76
2021/08/13 01:08:34;;;;;;;11.25;6.38;;;614.60;2304.00;;;;;;5041946;28;20041;-76
2021/08/13 01:11:10;;;;;;;10.75;6.25;;;614.60;2304.00;;;;;;5032021;28;20041;-76
2021/08/13 01:13:45;;;;;;;9.63;6.20;;;614.60;2304.00;;;;;;5033518;28;20025;-76
2021/08/13 01:16:12;;;;;;;9.63;6.00;;;614.60;2304.00;;;;;;5024993;28;20030;-76
2021/08/13 01:18:44;;;;;;;14.38;6.22;;;614.50;2329.60;;;;;;5030464;28;20029;-77
2021/08/13 01:21:31;;;;;;;11.50;6.47;;;614.50;2329.60;;;;;;5032331;28;20049;-76
2021/08/13 01:24:08;;;;;;;12.68;5.78;;;614.40;2355.20;;;;;;5044602;28;20484;-76
2021/08/13 01:26:39;;;;;;;10.98;5.97;;;614.40;2355.20;;;;;;5027514;28;20017;-76
2021/08/13 01:29:33;;;;;;;13.45;5.95;;;589.70;2355.20;;;;;;5035868;28;20036;-76
2021/08/13 01:32:17;;;;;;;13.43;6.85;;;589.70;2355.20;;;;;;5028032;28;20025;-76
2021/08/13 01:34:45;;;;;;;10.35;6.22;;;589.70;2380.80;;;;;;5029775;28;20038;-76
2021/08/13 01:37:13;;;;;;;9.32;6.07;;;589.70;2380.80;;;;;;5036555;28;20026;-77
2021/08/13 01:39:41;;;;;;;12.65;5.63;;;589.60;2406.40;;;;;;5040088;28;20017;-76
2021/08/13 01:42:10;;;;;;;12.05;7.03;;;589.70;2406.40;;;;;;5048467;28;20479;-76
2021/08/13 01:44:38;;;;;;;11.07;6.75;;;589.60;2406.40;;;;;;5036077;28;20484;-76
2021/08/13 01:47:04;;;;;;;10.15;7.03;;;589.60;2406.40;;;;;;5036290;28;20026;-75
2021/08/13 01:49:32;;;;;;;8.85;7.38;;;589.60;2406.40;;;;;;5032369;28;20487;-76
2021/08/13 01:52:00;;;;;;;15.70;6.75;;;589.60;2380.80;;;;;;5031611;28;20025;-76
2021/08/13 01:54:27;;;;;;;10.23;6.78;;;589.60;2380.80;;;;;;5038521;28;20031;-76
2021/08/13 01:56:54;;;;;;;11.18;7.32;;;589.60;2406.40;;;;;;5038360;28;20052;-76
2021/08/13 01:59:21;;;;;;;12.80;7.43;;;589.60;2380.80;;;;;;5032598;28;20026;-76
2021/08/13 02:01:47;;;;;;;10.45;6.57;;;589.60;2380.80;;;;;;5039394;28;20030;-76
2021/08/13 02:04:20;;;;;;;10.02;7.00;;;589.60;2380.80;;;;;;5031918;28;20025;-76
2021/08/13 02:06:49;;;;;;;11.90;6.93;;;589.60;2380.80;;;;;;5031625;28;20447;-76
2021/08/13 02:09:16;;;;;;;13.00;6.75;;;589.60;2380.80;;;;;;5027447;28;20084;-76
2021/08/13 02:11:44;;;;;;;11.85;7.03;;;589.60;2380.80;;;;;;5025506;28;20101;-76
2021/08/13 02:14:10;;;;;;;9.82;6.20;;;589.60;2380.80;;;;;;5030801;28;20029;-77
2021/08/13 02:16:36;;;;;;;13.77;7.20;;;589.60;2380.80;;;;;;5040487;28;20028;-77
2021/08/13 02:19:26;;;;;;;10.98;6.25;;;589.50;2406.40;;;;;;5028242;28;20058;-74
2021/08/13 02:21:52;;;;;;;12.27;7.05;;;589.60;2380.80;;;;;;5025140;28;20080;-75
2021/08/13 02:24:18;;;;;;;12.85;7.40;;;589.60;2380.80;;;;;;5046756;28;20037;-74
2021/08/13 02:26:48;;;;;;;12.75;6.65;;;589.60;2380.80;;;;;;5030893;28;20746;-74
2021/08/13 02:29:14;;;;;;;11.43;7.25;;;589.50;2406.40;;;;;;5030957;28;20104;-74
2021/08/13 02:31:40;;;;;;;11.23;7.55;;;589.60;2406.40;;;;;;5037336;28;20109;-74
2021/08/13 02:34:06;;;;;;;12.02;6.30;;;589.50;2406.40;;;;;;5033499;28;20068;-74
2021/08/13 02:37:12;;;;;;;11.63;7.10;;;589.50;2406.40;;;;;;5039514;28;20030;-74
2021/08/13 02:39:52;;;;;;;11.07;6.40;;;589.50;2406.40;;;;;;4974316;28;20077;-74
2021/08/13 02:42:25;;;;;;;10.18;6.80;;;589.50;2406.40;;;;;;4963796;28;20062;-74
2021/08/13 02:44:56;;;;;;;11.45;6.90;;;589.50;2432.00;;;;;;4961240;28;20039;-74
2021/08/13 02:47:25;;;;;;;10.35;5.80;;;589.50;2432.00;;;;;;4956835;28;20043;-74
2021/08/13 02:49:59;;;;;;;11.18;6.25;;;589.50;2432.00;;;;;;4955255;28;20514;-74
2021/08/13 02:52:29;;;;;;;10.77;7.13;;;589.50;2432.00;;;;;;4955187;28;20034;-74
2021/08/13 02:55:01;;;;;;;9.73;6.60;;;589.50;2432.00;;;;;;4970788;28;20502;-75
2021/08/13 02:57:32;;;;;;;14.45;7.07;;;589.50;2432.00;;;;;;4978306;28;20031;-74
2021/08/13 03:00:04;;;;;;;10.27;6.70;;;589.50;2432.00;;;;;;4979367;28;20042;-75
2021/08/13 03:02:31;;;;;;;10.90;7.15;;;589.50;2432.00;;;;;;4979663;28;20027;-75
2021/08/13 03:04:58;;;;;;;13.68;6.95;;;589.50;2432.00;;;;;;4951507;29;20506;-74
2021/08/13 03:07:27;;;;;;;8.50;6.22;;;589.50;2432.00;;;;;;4986303;28;20038;-74
2021/08/13 03:09:54;;;;;;;10.85;6.75;;;589.50;2432.00;;;;;;4975024;28;20473;-74
2021/08/13 03:12:20;;;;;;;10.98;6.40;;;589.50;2432.00;;;;;;4980585;28;20031;-74
2021/08/13 03:14:48;;;;;;;9.07;6.97;;;589.40;2432.00;;;;;;5030938;28;20045;-75
2021/08/13 03:17:14;;;;;;;8.63;6.68;;;589.40;2432.00;;;;;;5024186;28;20493;-75
2021/08/13 03:19:41;;;;;;;10.15;7.72;;;589.40;2432.00;;;;;;5035549;28;20021;-75
2021/08/13 03:22:07;;;;;;;11.18;6.95;;;589.30;2432.00;;;;;;5023909;28;20362;-75
2021/08/13 03:24:33;;;;;;;11.18;8.07;;;589.30;2432.00;;;;;;5028739;28;20032;-76
2021/08/13 03:27:01;;;;;;;9.63;6.40;;;589.30;2432.00;;;;;;5046912;28;20033;-75
2021/08/13 03:29:26;;;;;;;9.50;6.65;;;589.30;2432.00;;;;;;5032731;28;20025;-75
2021/08/13 03:31:56;;;;;;;8.35;6.55;;;589.30;2432.00;;;;;;5025215;28;20499;-76
2021/08/13 03:34:22;;;;;;;8.80;5.85;;;589.30;2432.00;;;;;;5026078;28;20045;-76
2021/08/13 03:36:48;;;;;;;10.65;6.60;;;589.20;2432.00;;;;;;5028148;28;20393;-75
2021/08/13 03:39:13;;;;;;;10.07;6.88;;;589.30;2432.00;;;;;;5034318;28;20036;-75
2021/08/13 03:41:40;;;;;;;8.35;6.43;;;589.20;2432.00;;;;;;5016183;28;20083;-75
2021/08/13 03:44:06;;;;;;;8.88;6.35;;;589.20;2432.00;;;;;;5034599;28;20022;-76
2021/08/13 03:46:32;;;;;;;8.07;6.60;;;589.20;2432.00;;;;;;5034917;28;20590;-76
2021/08/13 03:48:57;;;;;;;13.63;7.13;;;589.20;2432.00;;;;;;5029973;28;20492;-75
2021/08/13 03:51:23;;;;;;;8.07;5.80;;;589.20;2432.00;;;;;;5031219;28;20025;-75
2021/08/13 03:53:49;;;;;;;15.30;7.35;;;589.20;2432.00;;;;;;5031091;28;20100;-75
2021/08/13 03:56:15;;;;;;;7.60;6.53;;;589.20;2432.00;;;;;;5028783;28;20125;-75
2021/08/13 03:58:41;;;;;;;9.27;6.60;;;589.20;2432.00;;;;;;5031271;28;20028;-75
2021/08/13 04:01:08;;;;;;;11.23;7.32;;;589.10;2432.00;;;;;;5040781;28;20483;-75
2021/08/13 04:03:34;;;;;;;13.60;8.05;;;589.20;2432.00;;;;;;5031512;28;20029;-75
2021/08/13 04:06:00;;;;;;;11.40;6.95;;;589.10;2432.00;;;;;;5031077;28;20112;-75
2021/08/13 04:08:25;;;;;;;11.73;6.55;;;589.20;2432.00;;;;;;5041271;28;20506;-74
2021/08/13 04:10:51;;;;;;;11.98;6.78;;;589.20;2432.00;;;;;;5030846;28;20021;-74
2021/08/13 04:13:17;;;;;;;10.93;6.60;;;589.30;2432.00;;;;;;5031852;28;20476;-73
2021/08/13 04:15:44;;;;;;;10.68;6.32;;;589.20;2432.00;;;;;;5035655;28;20488;-75
2021/08/13 04:18:10;;;;;;;17.65;9.65;;;589.20;2432.00;;;;;;5031333;28;20032;-74
2021/08/13 04:20:36;;;;;;;13.13;7.53;;;589.20;2432.00;;;;;;5031093;28;20021;-75
2021/08/13 04:23:02;;;;;;;10.82;7.22;;;589.10;2432.00;;;;;;5027135;28;20017;-75
2021/08/13 04:25:28;;;;;;;13.07;6.57;;;589.10;2432.00;;;;;;5034842;28;20036;-75
2021/08/13 04:27:54;;;;;;;8.52;5.93;;;589.10;2432.00;;;;;;5035779;28;20029;-75
2021/08/13 04:30:20;;;;;;;8.95;6.78;;;589.20;2432.00;;;;;;5037116;28;20060;-75
2021/08/13 04:32:46;;;;;;;11.13;6.40;;;589.30;2432.00;;;;;;5034357;28;20125;-75
2021/08/13 04:35:12;;;;;;;9.93;6.05;;;589.30;2432.00;;;;;;5034389;28;20116;-75
2021/08/13 04:37:39;;;;;;;9.68;6.07;;;589.30;2432.00;;;;;;5031245;28;20480;-75
2021/08/13 04:40:05;;;;;;;8.73;6.10;;;589.40;2432.00;;;;;;5026273;28;20021;-75
2021/08/13 04:42:31;;;;;;;10.38;6.32;;;589.40;2406.40;;;;;;5033046;28;20029;-75
2021/08/13 04:44:57;;;;;;;8.57;7.13;;;589.50;2432.00;;;;;;5024949;28;20021;-75
2021/08/13 04:47:23;;;;;;;11.73;6.80;;;589.60;2406.40;;;;;;5035552;28;20022;-75
2021/08/13 04:49:48;;;;;;;12.60;6.93;;;589.60;2406.40;;;;;;5033855;28;20037;-75
2021/08/13 04:52:14;;;;;;;10.20;5.90;;;614.40;2406.40;;;;;;5034350;28;20101;-75
2021/08/13 04:54:40;;;;;;;9.48;6.90;;;614.40;2406.40;;;;;;5033735;28;20024;-75
2021/08/13 04:57:06;;;;;;;10.15;6.55;;;614.40;2406.40;;;;;;5034040;28;20017;-74
2021/08/13 04:59:31;;;;;;;10.18;5.95;;;614.50;2380.80;;;;;;5034050;28;20047;-75
2021/08/13 05:01:58;;;;;;;8.60;5.88;;;614.60;2380.80;;;;;;5032266;28;20119;-74
2021/08/13 05:04:24;;;;;;;10.32;6.63;;;614.80;2380.80;;;;;;5033332;28;20025;-75
2021/08/13 05:06:49;;;;;;;10.55;6.00;;;614.90;2355.20;;;;;;5043144;28;20105;-75
2021/08/13 05:09:15;;;;;;;15.65;6.88;;;614.90;2329.60;;;;;;5047632;28;20487;-75
2021/08/13 05:11:41;;;;;;;17.98;6.35;;;614.90;2329.60;;;;;;5024593;28;20554;-75
2021/08/13 05:14:06;;;;;;;9.70;6.15;;;615.20;2304.00;;;;;;5047029;28;20152;-75
2021/08/13 05:16:32;;;;;;;11.02;6.40;;;615.30;2278.40;;;;;;5033361;28;20487;-75
2021/08/13 05:18:58;;;;;;;10.18;6.03;;;640.00;2304.00;;;;;;5031761;28;20045;-75
2021/08/13 05:21:24;;;;;;;12.95;6.85;;;640.10;2278.40;;;;;;5033235;28;20472;-75
2021/08/13 05:23:50;;;;;;;9.35;6.43;;;640.20;2278.40;;;;;;5033286;28;20034;-75
2021/08/13 05:26:16;;;;;;;11.35;5.82;;;640.40;2252.80;;;;;;5038365;28;20553;-75
2021/08/13 05:28:41;;;;;;;16.30;6.93;;;640.50;2252.80;;;;;;5038355;28;20060;-75
2021/08/13 05:31:08;;;;;;;14.25;6.00;;;640.70;2252.80;;;;;;5025714;28;20022;-75
2021/08/13 05:33:34;;;;;;;10.35;7.05;;;640.80;2252.80;;;;;;5024171;28;20076;-75
2021/08/13 05:35:59;;;;;;;12.23;7.15;;;665.60;2278.40;;;;;;5018207;28;20488;-74
2021/08/13 05:38:25;;;;;;;13.55;6.63;;;665.70;2278.40;;;;;;5031354;28;20472;-75
2021/08/13 05:40:51;;;;;;;10.32;6.05;;;665.90;2278.40;;;;;;5016845;28;20029;-75
2021/08/13 05:43:17;;;;;;;11.80;6.53;;;666.10;2252.80;;;;;;5020492;28;20049;-75
2021/08/13 05:45:42;;;;;;;11.13;6.40;;;666.30;2252.80;;;;;;5030575;28;20045;-75
2021/08/13 05:48:08;;;;;;;9.27;7.40;;;666.50;2227.20;;;;;;5031553;28;20021;-75
2021/08/13 05:50:34;;;;;;;9.95;6.55;;;691.20;2227.20;;;;;;5032361;28;20102;-75
2021/08/13 06:06:05;;;;;;;11.32;8.07;;;691.40;2201.60;;;;;;5130387;27;20406;-76
2021/08/13 06:08:31;;;;;;;9.93;7.22;;;717.60;2073.60;;;;;;5129906;27;20502;-75
2021/08/13 06:10:57;;;;;;;15.93;11.68;;;717.60;2073.60;;;;;;5114541;28;20030;-74
2021/08/13 06:13:22;;;;;;;9.93;7.55;;;742.40;2073.60;;;;;;5129773;27;20015;-75
2021/08/13 06:15:48;;;;;;;14.57;6.90;;;742.60;2048.00;;;;;;5115579;27;20073;-75
2021/08/13 06:18:14;;;;;;;11.27;6.43;;;742.60;2048.00;;;;;;5119386;27;20077;-74
2021/08/13 06:20:40;;;;;;;17.52;9.85;;;742.80;2022.40;;;;;;5157662;27;20026;-74
2021/08/13 06:23:05;;;;;;;20.70;13.27;;;742.90;1996.80;;;;;;5128436;27;20022;-74
2021/08/13 06:25:31;;;;;;;14.02;7.35;;;742.90;1996.80;;;;;;5122763;27;20031;-75
2021/08/13 06:27:57;;;;;;;15.95;7.07;;;743.10;1971.20;;;;;;5117619;27;20031;-74
2021/08/13 06:30:23;;;;;;;21.45;7.32;;;768.00;2022.40;;;;;;5108800;28;20027;-75
2021/08/13 06:32:51;;;;;;;22.33;8.00;;;768.10;1971.20;;;;;;5125418;28;20785;-75
2021/08/13 06:35:17;;;;;;;14.02;6.28;;;768.30;1945.60;;;;;;5127223;27;20111;-75
2021/08/13 06:37:54;;;;;;;14.57;6.38;;;768.30;1945.60;;;;;;5119797;28;20155;-75
2021/08/13 06:40:21;;;;;;;12.15;7.00;;;768.20;1971.20;;;;;;5111077;27;20376;-75
2021/08/13 06:42:48;;;;;;;17.83;7.43;;;768.30;1971.20;;;;;;5122062;28;20077;-75
2021/08/13 06:45:16;;;;;;;13.40;5.80;;;768.70;1945.60;;;;;;5109186;28;20475;-74
2021/08/13 06:47:43;;;;;;;12.65;6.28;;;793.60;1945.60;;;;;;5108911;28;20028;-75
2021/08/13 06:50:09;;;;;;;12.63;5.47;;;793.80;1945.60;;;;;;5161064;27;20425;-75
2021/08/13 06:52:35;;;;;;;7.43;5.35;;;794.10;1920.00;;;;;;5128954;27;20110;-75
2021/08/13 06:55:00;;;;;;;13.65;5.85;;;794.40;1894.40;;;;;;5126757;27;20134;-74
2021/08/13 06:57:26;;;;;;;10.63;5.70;;;819.40;1868.80;;;;;;5127916;27;20464;-74
2021/08/13 06:59:52;;;;;;;10.65;4.90;;;819.70;1817.60;;;;;;5122475;27;20028;-75
2021/08/13 07:02:18;;;;;;;14.23;5.47;;;819.70;1792.00;;;;;;5120247;27;20069;-75
2021/08/13 07:04:43;;;;;;;9.77;4.68;;;819.90;1715.20;;;;;;5123903;27;20576;-74
2021/08/13 07:07:09;;;;;;;7.93;4.88;;;819.60;1689.60;;;;;;5098126;27;20031;-75
2021/08/13 07:09:35;;;;;;;7.22;4.50;;;819.80;1715.20;;;;;;5100739;28;20395;-74
2021/08/13 07:12:00;;;;;;;8.45;4.95;;;820.10;1638.40;;;;;;5105874;28;20872;-75
2021/08/13 07:14:26;;;;;;;18.67;5.15;;;845.20;1638.40;;;;;;5111367;28;20037;-75
2021/08/13 07:16:52;;;;;;;16.25;6.05;;;845.10;1638.40;;;;;;5114205;28;20026;-75
2021/08/13 07:19:17;;;;;;;10.20;5.03;;;845.30;1612.80;;;;;;5105225;28;20065;-75
2021/08/13 07:21:43;;;;;;;14.70;5.45;;;845.10;1587.20;;;;;;5099010;28;20059;-75
2021/08/13 07:24:09;;;;;;;6.72;4.53;;;845.30;1612.80;;;;;;5110284;28;20031;-74
2021/08/13 07:26:35;;;;;;;7.00;4.82;;;845.20;1561.60;;;;;;5095771;28;20020;-75
2021/08/13 07:29:01;;;;;;;6.65;4.00;;;845.20;1587.20;;;;;;5096539;28;20028;-75
2021/08/13 07:31:27;;;;;;;8.07;4.30;;;845.30;1510.40;;;;;;5095467;28;20495;-75
2021/08/13 07:33:52;;;;;;;17.08;4.70;;;845.40;1536.00;;;;;;5094963;28;20043;-75
2021/08/13 07:36:24;;;;;;;11.63;4.45;;;845.50;1510.40;;;;;;5114520;28;20026;-75
2021/08/13 07:38:50;;;;;;;9.18;4.72;;;845.70;1484.80;;;;;;5093937;28;20024;-75
2021/08/13 07:41:16;;;;;;;8.43;4.75;;;845.50;1510.40;;;;;;5107601;28;20024;-75
2021/08/13 07:43:42;;;;;;;9.05;5.05;;;870.40;1459.20;;;;;;5105066;28;20050;-75
2021/08/13 07:46:09;;;;;;;11.82;4.40;;;870.40;1459.20;;;;;;5103754;28;20031;-75
2021/08/13 07:48:35;;;;;;;6.88;4.50;;;870.60;1459.20;;;;;;5098978;28;20384;-74
2021/08/13 07:51:00;;;;;;;6.90;4.38;;;870.60;1459.20;;;;;;5096304;28;20024;-74
2021/08/13 07:53:26;;;;;;;6.57;5.25;;;870.80;1408.00;;;;;;5106087;28;20019;-74
2021/08/13 07:55:52;;;;;;;9.70;4.65;;;870.90;1433.60;;;;;;5101170;28;20031;-74
2021/08/13 07:58:17;;;;;;;12.30;5.85;;;871.10;1408.00;;;;;;5105824;28;20094;-75
2021/08/13 08:00:43;;;;;;;7.53;4.55;;;871.10;1433.60;;;;;;5103983;28;20019;-75
2021/08/13 08:03:09;;;;;;;6.18;4.30;;;871.00;1433.60;;;;;;5106249;28;20485;-75
2021/08/13 08:05:35;;;;;;;6.45;4.18;;;870.90;1433.60;;;;;;5101750;27;20040;-75
2021/08/13 08:08:00;;;;;;;6.90;4.72;;;870.90;1433.60;;;;;;5102419;28;20069;-75
2021/08/13 08:10:26;;;;;;;6.32;5.40;;;871.10;1408.00;;;;;;5099581;28;20027;-75
2021/08/13 08:12:52;;;;;;;6.65;5.00;;;871.30;1382.40;;;;;;5107823;28;20482;-74
2021/08/13 08:15:18;;;;;;;8.63;4.88;;;871.30;1382.40;;;;;;5103754;28;20050;-75
2021/08/13 08:17:43;;;;;;;6.63;4.47;;;896.20;1356.80;;;;;;5104155;28;20054;-75
2021/08/13 08:20:09;;;;;;;5.50;4.90;;;896.30;1331.20;;;;;;5101897;28;20036;-74
2021/08/13 08:22:36;;;;;;;6.15;4.07;;;896.30;1356.80;;;;;;5098247;28;20024;-75
2021/08/13 08:25:02;;;;;;;7.20;5.63;;;896.20;1331.20;;;;;;5108947;28;20023;-74
2021/08/13 08:27:28;;;;;;;9.85;4.30;;;896.50;1305.60;;;;;;5105965;28;20042;-75
2021/08/13 08:29:54;;;;;;;8.10;5.28;;;896.50;1331.20;;;;;;5105760;28;20464;-75
2021/08/13 08:32:20;;;;;;;7.18;4.13;;;896.70;1305.60;;;;;;5102942;28;20016;-74
2021/08/13 08:34:45;;;;;;;5.32;4.38;;;921.60;1331.20;;;;;;5106651;28;20033;-76
2021/08/13 08:37:11;;;;;;;5.60;4.60;;;921.70;1331.20;;;;;;5100784;28;20024;-76
2021/08/13 08:39:38;;;;;;;5.40;4.30;;;922.10;1280.00;;;;;;5110776;28;20118;-77
2021/08/13 08:42:19;;;;;;;5.15;3.38;;;922.10;1280.00;;;;;;5103053;28;20026;-77
2021/08/13 08:44:45;;;;;;;6.78;4.25;;;922.10;1280.00;;;;;;5108452;28;20115;-77
2021/08/13 08:47:12;;;;;;;8.93;4.43;;;947.20;1254.40;;;;;;5094908;28;20024;-77
2021/08/13 08:49:39;;;;;;;5.97;5.28;;;947.20;1254.40;;;;;;5107562;28;20065;-77
2021/08/13 08:52:09;;;;;;;5.53;3.92;;;947.50;1228.80;;;;;;5102721;28;20076;-76
2021/08/13 08:54:37;;;;;;;5.63;4.05;;;922.40;1254.40;;;;;;5099566;28;20049;-77
2021/08/13 08:57:04;;;;;;;7.68;3.80;;;947.20;1254.40;;;;;;5101065;28;20020;-75
2021/08/13 08:59:30;;;;;;;6.63;4.43;;;947.50;1228.80;;;;;;5106741;28;20369;-75
2021/08/13 09:01:57;;;;;;;6.85;4.43;;;947.90;1177.60;;;;;;5110187;28;20072;-75
2021/08/13 09:04:22;;;;;;;6.95;4.50;;;948.10;1177.60;;;;;;5099337;28;20817;-75
2021/08/13 09:06:48;;;;;;;7.63;3.63;;;972.80;1203.20;;;;;;5111378;28;20141;-75
2021/08/13 09:09:14;;;;;;;6.75;3.92;;;973.10;1177.60;;;;;;5100876;28;20065;-75
2021/08/13 09:11:41;;;;;;;6.70;3.97;;;973.10;1152.00;;;;;;5103418;28;20098;-75
2021/08/13 09:14:13;;;;;;;6.72;4.75;;;973.30;1152.00;;;;;;5110968;28;20038;-75
2021/08/13 09:16:42;;;;;;;7.00;4.25;;;973.60;1152.00;;;;;;5107472;28;20038;-75
2021/08/13 09:19:09;;;;;;;7.38;4.70;;;973.60;1152.00;;;;;;5110957;28;20032;-76
2021/08/13 09:21:36;;;;;;;6.68;4.38;;;998.40;1152.00;;;;;;5109573;28;20542;-75
2021/08/13 09:24:12;;;;;;;4.90;4.35;;;998.40;1177.60;;;;;;5111107;28;20053;-75
2021/08/13 09:26:43;;;;;;;11.20;4.55;;;998.60;1152.00;;;;;;5105327;28;20024;-75
2021/08/13 09:29:11;;;;;;;6.57;4.55;;;998.80;1152.00;;;;;;5112360;28;20016;-76
2021/08/13 09:31:38;;;;;;;7.50;4.25;;;998.80;1126.40;;;;;;5103029;28;20035;-74
2021/08/13 09:34:15;;;;;;;4.70;4.10;;;998.60;1152.00;;;;;;5104696;28;20111;-75
2021/08/13 09:36:50;;;;;;;4.50;4.00;;;998.90;1100.80;;;;;;5104007;28;20023;-76
2021/08/13 09:39:16;;;;;;;4.80;3.95;;;999.30;1100.80;;;;;;5096841;28;20103;-77
2021/08/13 09:41:48;;;;;;;5.97;5.00;;;999.20;1100.80;;;;;;5109927;28;20020;-77
2021/08/13 09:44:33;;;;;;;10.05;4.95;;;1024.00;1100.80;;;;;;5102847;28;20434;-77
2021/08/13 09:47:03;;;;;;;6.45;4.72;;;1024.50;1075.20;;;;;;5104054;28;20043;-77
2021/08/13 09:49:30;;;;;;;6.00;4.57;;;1024.70;1049.60;;;;;;5108507;28;20028;-77
2021/08/13 09:51:57;;;;;;;8.73;5.07;;;1024.70;1075.20;;;;;;5108364;28;20037;-76
2021/08/13 09:54:28;;;;;;;9.07;7.22;;;1024.80;1075.20;;;;;;5102105;28;20027;-76
2021/08/13 09:57:05;;;;;;;9.88;7.55;;;1049.80;1100.80;;;;;;5106998;28;20018;-76
2021/08/13 09:59:30;;;;;;;7.93;7.13;;;1049.60;1100.80;;;;;;5101116;28;20099;-76
2021/08/13 10:01:56;;;;;;;8.75;6.70;;;1050.10;1075.20;;;;;;5105068;28;20032;-77
2021/08/13 10:04:35;;;;;;;7.30;6.45;;;1050.10;1075.20;;;;;;5103170;28;20106;-76
2021/08/13 10:07:01;;;;;;;7.70;5.35;;;1050.30;1075.20;;;;;;5105007;28;20089;-77
2021/08/13 10:09:29;;;;;;;6.90;4.30;;;1050.10;1049.60;;;;;;5098401;28;20036;-76
2021/08/13 10:12:02;;;;;;;7.68;4.32;;;1049.90;1049.60;;;;;;5099242;28;20106;-76
2021/08/13 10:14:34;;;;;;;8.27;4.47;;;1049.90;1049.60;;;;;;5099613;28;20116;-77
2021/08/13 10:17:14;;;;;;;6.00;4.05;;;1050.30;1049.60;;;;;;5097789;28;20770;-77
2021/08/13 10:19:41;;;;;;;6.40;4.40;;;;;;;;;;5097524;28;20016;-77
2021/08/13 10:22:07;;;;;;;6.18;5.03;;;1050.40;1049.60;;;;;;5098194;28;20054;-76
2021/08/13 10:24:35;;;;;;;7.35;4.78;;;1075.20;1075.20;;;;;;5100372;28;20027;-76
2021/08/13 10:27:02;;;;;;;5.55;4.70;;;1075.40;1049.60;;;;;;5100969;28;20028;-78
2021/08/13 10:29:28;;;;;;;5.95;4.22;;;1075.50;1024.00;;;;;;5104420;28;20031;-79
2021/08/13 10:31:57;;;;;;;6.20;4.30;;;1075.60;1024.00;;;;;;5101574;28;20066;-79
2021/08/13 10:34:23;;;;;;;6.63;5.35;;;1075.90;998.40;;;;;;5105775;28;20040;-78
2021/08/13 10:36:54;;;;;;;6.45;4.70;;;1075.30;1024.00;;;;;;5104224;28;20020;-76
2021/08/13 10:39:22;;;;;;;7.38;5.05;;;1076.10;1049.60;;;;;;5107031;28;20451;-78
2021/08/13 10:41:52;;;;;;;5.63;4.60;;;1075.90;1024.00;;;;;;5104384;28;20020;-76
2021/08/13 10:44:21;;;;;;;6.95;5.07;;;1075.90;998.40;;;;;;5109584;28;20058;-77
2021/08/13 10:46:47;;;;;;;6.57;4.55;;;1075.90;1024.00;;;;;;5107105;28;20020;-80
2021/08/13 10:49:17;;;;;;;6.97;4.97;;;1076.00;998.40;;;;;;5104795;28;20019;-80
2021/08/13 10:51:43;;;;;;;6.97;4.60;;;1049.70;1049.60;;;;;;5133420;27;20035;-80
2021/08/13 10:54:14;;;;;;;6.43;4.65;;;1075.70;1024.00;;;;;;5112069;28;20024;-80
2021/08/13 10:56:42;;;;;;;9.73;5.47;;;1075.60;1024.00;;;;;;5102071;28;20039;-80
2021/08/13 10:59:08;;;;;;;5.45;4.57;;;1100.90;998.40;;;;;;5099103;28;20547;-80
2021/08/13 11:01:34;;;;;;;5.15;3.85;;;1076.00;998.40;;;;;;5103920;28;20098;-80
2021/08/13 11:04:00;;;;;;;5.28;4.38;;;1075.90;998.40;;;;;;5098807;28;20046;-80
2021/08/13 11:06:38;;;;;;;7.20;4.35;;;1076.10;998.40;;;;;;5107520;28;20384;-80
2021/08/13 11:09:05;;;;;;;8.95;5.00;;;1100.90;998.40;;;;;;5125630;28;20113;-80
2021/08/13 11:11:57;;;;;;;10.57;5.28;;;;;;;;;;5129851;28;20039;-80
2021/08/13 11:14:24;;;;;;;6.40;4.47;;;1126.40;1024.00;;;;;;5126024;28;20032;-80
2021/08/13 11:16:51;;;;;;;7.93;4.25;;;1100.90;972.80;;;;;;5132627;27;20081;-80
2021/08/13 11:19:19;;;;;;;8.57;4.30;;;1101.50;972.80;;;;;;5107930;28;20028;-80
2021/08/13 11:21:49;;;;;;;7.45;5.10;;;1101.40;972.80;;;;;;5100659;28;20031;-80
2021/08/13 11:24:19;;;;;;;9.95;5.43;;;1126.60;998.40;;;;;;5104270;28;20133;-80
2021/08/13 11:26:51;;;;;;;7.85;5.25;;;1126.90;998.40;;;;;;5103363;28;20020;-80
2021/08/13 11:29:29;;;;;;;7.57;5.05;;;1126.70;998.40;;;;;;5108593;28;20023;-80
2021/08/13 11:32:18;;;;;;;7.28;4.13;;;1126.70;998.40;;;;;;5096640;28;20031;-80
2021/08/13 11:34:51;;;;;;;6.97;4.28;;;1101.70;998.40;;;;;;5110732;28;20036;-80
2021/08/13 11:37:55;;;;;;;8.55;4.78;;;1126.40;1024.00;;;;;;5113877;28;20073;-80
2021/08/13 11:40:21;;;;;;;6.97;3.92;;;1127.00;998.40;;;;;;5051273;28;20028;-80
2021/08/13 11:42:51;;;;;;;6.35;4.40;;;1126.90;1024.00;;;;;;5082840;28;20066;-80
2021/08/13 11:45:18;;;;;;;8.65;5.38;;;1126.80;998.40;;;;;;5070858;28;20040;-80
2021/08/13 11:47:48;;;;;;;5.57;4.65;;;1126.60;998.40;;;;;;5069322;28;20082;-80
2021/08/13 11:50:14;;;;;;;4.93;4.13;;;1101.60;998.40;;;;;;5050879;28;20488;-80
2021/08/13 11:52:51;;;;;;;8.75;5.63;;;1101.60;998.40;;;;;;5085761;28;20024;-80
2021/08/13 11:55:20;;;;;;;5.30;4.55;;;1126.80;998.40;;;;;;5070496;28;20844;-80
2021/08/13 11:57:47;;;;;;;8.05;4.75;;;1127.10;972.80;;;;;;5052455;28;20063;-80
2021/08/13 12:00:23;;;;;;;6.53;5.72;;;1126.70;998.40;;;;;;5070279;28;20016;-80
2021/08/13 12:03:09;;;;;;;6.82;4.80;;;1126.70;998.40;;;;;;5068600;28;20032;-80
2021/08/13 12:05:37;;;;;;;7.45;4.85;;;1126.40;998.40;;;;;;5069761;28;20086;-80
2021/08/13 12:08:05;;;;;;;11.00;4.28;;;1101.40;972.80;;;;;;5050575;28;20056;-80
2021/08/13 12:10:32;;;;;;;6.35;4.32;;;1101.60;972.80;;;;;;5054209;28;20037;-81
2021/08/13 12:13:05;;;;;;;8.65;4.57;;;1101.10;998.40;;;;;;5054389;28;20040;-81
2021/08/13 12:15:34;;;;;;;6.90;4.78;;;1126.40;998.40;;;;;;5047982;28;20120;-79
2021/08/13 12:18:01;;;;;;;7.28;4.72;;;1101.70;972.80;;;;;;5098126;28;20048;-84
2021/08/13 12:20:28;;;;;;;5.35;4.38;;;1101.50;972.80;;;;;;5103421;28;20026;-79
2021/08/13 12:23:10;;;;;;;7.93;4.95;;;1101.50;972.80;;;;;;5106825;28;20470;-80
2021/08/13 12:25:37;;;;;;;5.10;4.00;;;1126.40;998.40;;;;;;5104058;28;20103;-80
2021/08/13 12:28:05;;;;;;;6.40;4.22;;;1101.60;972.80;;;;;;5106473;28;20027;-79
2021/08/13 12:30:33;;;;;;;7.25;4.72;;;1127.00;998.40;;;;;;5103070;28;20108;-81